Terminal Aerodrome Forecast
Issued by NWS

Home | Current Version | Previous Version | Text Only | Print | Product List | Glossary On
Versions: 1 2 3 4 5 6 7 8 9 10 11 12 13
000
FTUS41 KBTV 021139 AAA
TAFSLK
TAF AMD
KSLK 021139Z 0212/0312 00000KT 3SM BR BKN006 OVC012
      TEMPO 0212/0215 SCT006 OVC012
     FM021500 VRB03KT 3SM -RA BR SCT008 OVC012
     FM022200 00000KT P6SM VCSH SCT008 OVC015
     FM030100 00000KT P6SM VCSH BKN010 OVC025
     FM030200 00000KT P6SM BKN010 OVC025=

USA.gov is the U.S. government's official web portal to all federal, state and local government web resources and services.